sensor_id;sensor_type;location;lat;lon;timestamp;temperature;humidity
16408;DHT22;8313;49.894;8.084;2023-05-10T00:00:42;14.00;99.90
16408;DHT22;8313;49.894;8.084;2023-05-10T00:03:08;13.90;99.90
16408;DHT22;8313;49.894;8.084;2023-05-10T00:05:34;13.80;99.90
16408;DHT22;8313;49.894;8.084;2023-05-10T00:07:59;13.90;99.90
16408;DHT22;8313;49.894;8.084;2023-05-10T00:10:25;14.00;99.90
16408;DHT22;8313;49.894;8.084;2023-05-10T00:12:51;13.90;99.90
16408;DHT22;8313;49.894;8.084;2023-05-10T00:15:16;13.80;99.90
16408;DHT22;8313;49.894;8.084;2023-05-10T00:17:42;13.80;99.90
16408;DHT22;8313;49.894;8.084;2023-05-10T00:20:08;13.90;99.90
16408;DHT22;8313;49.894;8.084;2023-05-10T00:22:34;13.80;99.90
16408;DHT22;8313;49.894;8.084;2023-05-10T00:24:59;13.80;99.90
16408;DHT22;8313;49.894;8.084;2023-05-10T00:27:25;13.80;99.90
16408;DHT22;8313;49.894;8.084;2023-05-10T00:29:51;13.80;99.90
16408;DHT22;8313;49.894;8.084;2023-05-10T00:32:16;13.80;99.90
16408;DHT22;8313;49.894;8.084;2023-05-10T00:34:42;13.80;99.90
16408;DHT22;8313;49.894;8.084;2023-05-10T00:37:08;13.80;99.90
16408;DHT22;8313;49.894;8.084;2023-05-10T00:39:33;13.80;99.90
16408;DHT22;8313;49.894;8.084;2023-05-10T00:41:59;13.80;99.90
16408;DHT22;8313;49.894;8.084;2023-05-10T00:44:26;13.70;99.90
16408;DHT22;8313;49.894;8.084;2023-05-10T00:46:52;13.70;99.90
16408;DHT22;8313;49.894;8.084;2023-05-10T00:49:19;13.70;99.90
16408;DHT22;8313;49.894;8.084;2023-05-10T00:51:45;13.70;99.90
16408;DHT22;8313;49.894;8.084;2023-05-10T00:54:12;13.70;99.90
16408;DHT22;8313;49.894;8.084;2023-05-10T00:56:39;13.70;99.90
16408;DHT22;8313;49.894;8.084;2023-05-10T00:59:05;13.70;99.90
16408;DHT22;8313;49.894;8.084;2023-05-10T01:01:32;13.70;99.90
16408;DHT22;8313;49.894;8.084;2023-05-10T01:03:58;13.70;99.90
16408;DHT22;8313;49.894;8.084;2023-05-10T01:06:24;13.70;99.90
16408;DHT22;8313;49.894;8.084;2023-05-10T01:08:51;13.70;99.90
16408;DHT22;8313;49.894;8.084;2023-05-10T01:11:17;13.70;99.90
16408;DHT22;8313;49.894;8.084;2023-05-10T01:13:43;13.70;99.90
16408;DHT22;8313;49.894;8.084;2023-05-10T01:16:11;13.80;99.90
16408;DHT22;8313;49.894;8.084;2023-05-10T01:18:40;13.80;99.90
16408;DHT22;8313;49.894;8.084;2023-05-10T01:34:28;13.60;99.90
16408;DHT22;8313;49.894;8.084;2023-05-10T01:37:14;13.50;99.90
16408;DHT22;8313;49.894;8.084;2023-05-10T01:39:52;13.40;99.90
16408;DHT22;8313;49.894;8.084;2023-05-10T01:42:23;13.40;99.90
16408;DHT22;8313;49.894;8.084;2023-05-10T01:48:10;13.50;99.90
16408;DHT22;8313;49.894;8.084;2023-05-10T01:50:30;13.60;99.90
16408;DHT22;8313;49.894;8.084;2023-05-10T01:52:57;13.80;99.90
16408;DHT22;8313;49.894;8.084;2023-05-10T01:55:27;14.00;99.90
16408;DHT22;8313;49.894;8.084;2023-05-10T01:58:07;14.00;99.90
16408;DHT22;8313;49.894;8.084;2023-05-10T02:00:35;13.90;99.90
16408;DHT22;8313;49.894;8.084;2023-05-10T02:03:05;13.70;99.90
16408;DHT22;8313;49.894;8.084;2023-05-10T02:05:32;13.60;99.90
16408;DHT22;8313;49.894;8.084;2023-05-10T02:07:59;13.60;99.90
16408;DHT22;8313;49.894;8.084;2023-05-10T02:10:27;13.50;99.90
16408;DHT22;8313;49.894;8.084;2023-05-10T02:12:55;13.60;99.90
16408;DHT22;8313;49.894;8.084;2023-05-10T02:15:24;13.60;99.90
16408;DHT22;8313;49.894;8.084;2023-05-10T02:17:52;13.60;99.90
16408;DHT22;8313;49.894;8.084;2023-05-10T02:20:20;13.60;99.90
16408;DHT22;8313;49.894;8.084;2023-05-10T02:22:49;13.60;99.90
16408;DHT22;8313;49.894;8.084;2023-05-10T02:25:17;13.60;99.90
16408;DHT22;8313;49.894;8.084;2023-05-10T02:27:44;13.60;99.90
16408;DHT22;8313;49.894;8.084;2023-05-10T02:30:10;13.60;99.90
16408;DHT22;8313;49.894;8.084;2023-05-10T02:32:37;13.60;99.90
16408;DHT22;8313;49.894;8.084;2023-05-10T02:35:04;13.60;99.90
16408;DHT22;8313;49.894;8.084;2023-05-10T02:37:31;13.60;99.90
16408;DHT22;8313;49.894;8.084;2023-05-10T02:39:58;13.50;99.90
16408;DHT22;8313;49.894;8.084;2023-05-10T02:42:27;13.40;99.90
16408;DHT22;8313;49.894;8.084;2023-05-10T02:45:01;13.30;99.90
16408;DHT22;8313;49.894;8.084;2023-05-10T02:47:30;13.40;99.90
16408;DHT22;8313;49.894;8.084;2023-05-10T02:49:56;13.30;99.90
16408;DHT22;8313;49.894;8.084;2023-05-10T02:52:25;13.40;99.90
16408;DHT22;8313;49.894;8.084;2023-05-10T02:54:55;13.40;99.90
16408;DHT22;8313;49.894;8.084;2023-05-10T02:57:26;13.30;99.90
16408;DHT22;8313;49.894;8.084;2023-05-10T02:59:52;13.40;99.90
16408;DHT22;8313;49.894;8.084;2023-05-10T03:02:19;13.30;99.90
16408;DHT22;8313;49.894;8.084;2023-05-10T03:04:45;13.40;99.90
16408;DHT22;8313;49.894;8.084;2023-05-10T03:07:11;13.50;99.90
16408;DHT22;8313;49.894;8.084;2023-05-10T03:09:37;13.50;99.90
16408;DHT22;8313;49.894;8.084;2023-05-10T03:14:57;13.50;99.90
16408;DHT22;8313;49.894;8.084;2023-05-10T03:20:15;13.30;99.90
16408;DHT22;8313;49.894;8.084;2023-05-10T03:22:47;13.40;99.90
16408;DHT22;8313;49.894;8.084;2023-05-10T03:25:15;13.30;99.90
16408;DHT22;8313;49.894;8.084;2023-05-10T03:27:43;13.40;99.90
16408;DHT22;8313;49.894;8.084;2023-05-10T03:30:13;13.50;99.90
16408;DHT22;8313;49.894;8.084;2023-05-10T03:32:39;13.60;99.90
16408;DHT22;8313;49.894;8.084;2023-05-10T03:35:09;13.50;99.90
16408;DHT22;8313;49.894;8.084;2023-05-10T03:37:35;13.60;99.90
16408;DHT22;8313;49.894;8.084;2023-05-10T03:40:02;13.50;99.90
16408;DHT22;8313;49.894;8.084;2023-05-10T03:42:30;13.60;99.90
16408;DHT22;8313;49.894;8.084;2023-05-10T03:44:56;13.60;99.90
16408;DHT22;8313;49.894;8.084;2023-05-10T03:47:21;13.50;99.90
16408;DHT22;8313;49.894;8.084;2023-05-10T03:49:47;13.40;99.90
16408;DHT22;8313;49.894;8.084;2023-05-10T03:52:13;13.40;99.90
16408;DHT22;8313;49.894;8.084;2023-05-10T03:54:38;13.40;99.90
16408;DHT22;8313;49.894;8.084;2023-05-10T03:57:04;13.50;99.90
16408;DHT22;8313;49.894;8.084;2023-05-10T03:59:30;13.50;99.90
16408;DHT22;8313;49.894;8.084;2023-05-10T04:01:56;13.30;99.90
16408;DHT22;8313;49.894;8.084;2023-05-10T04:04:22;13.30;99.90
16408;DHT22;8313;49.894;8.084;2023-05-10T04:06:49;13.30;99.90
16408;DHT22;8313;49.894;8.084;2023-05-10T04:09:15;13.30;99.90
16408;DHT22;8313;49.894;8.084;2023-05-10T04:11:42;13.30;99.90
16408;DHT22;8313;49.894;8.084;2023-05-10T04:14:08;13.30;99.90
16408;DHT22;8313;49.894;8.084;2023-05-10T04:16:33;13.30;99.90
16408;DHT22;8313;49.894;8.084;2023-05-10T04:18:59;13.30;99.90
16408;DHT22;8313;49.894;8.084;2023-05-10T04:21:25;13.40;99.90
16408;DHT22;8313;49.894;8.084;2023-05-10T04:23:51;13.40;99.90
16408;DHT22;8313;49.894;8.084;2023-05-10T04:26:17;13.40;99.90
16408;DHT22;8313;49.894;8.084;2023-05-10T04:28:43;13.40;99.90
16408;DHT22;8313;49.894;8.084;2023-05-10T04:31:09;13.30;99.90
16408;DHT22;8313;49.894;8.084;2023-05-10T04:33:36;13.30;99.90
16408;DHT22;8313;49.894;8.084;2023-05-10T04:36:02;13.30;99.90
16408;DHT22;8313;49.894;8.084;2023-05-10T04:38:28;13.30;99.90
16408;DHT22;8313;49.894;8.084;2023-05-10T04:40:54;13.30;99.90
16408;DHT22;8313;49.894;8.084;2023-05-10T04:43:20;13.50;99.90
16408;DHT22;8313;49.894;8.084;2023-05-10T04:45:45;13.40;99.90
16408;DHT22;8313;49.894;8.084;2023-05-10T04:48:11;13.40;99.90
16408;DHT22;8313;49.894;8.084;2023-05-10T04:50:38;13.40;99.90
16408;DHT22;8313;49.894;8.084;2023-05-10T04:53:04;13.30;99.90
16408;DHT22;8313;49.894;8.084;2023-05-10T04:55:30;13.30;99.90
16408;DHT22;8313;49.894;8.084;2023-05-10T04:57:55;13.50;99.90
16408;DHT22;8313;49.894;8.084;2023-05-10T05:00:23;13.60;99.90
16408;DHT22;8313;49.894;8.084;2023-05-10T05:02:48;13.50;99.90
16408;DHT22;8313;49.894;8.084;2023-05-10T05:05:14;13.40;99.90
16408;DHT22;8313;49.894;8.084;2023-05-10T05:07:40;13.50;99.90
16408;DHT22;8313;49.894;8.084;2023-05-10T05:10:06;13.30;99.90
16408;DHT22;8313;49.894;8.084;2023-05-10T05:12:32;13.20;99.90
16408;DHT22;8313;49.894;8.084;2023-05-10T05:14:58;13.20;99.90
16408;DHT22;8313;49.894;8.084;2023-05-10T05:17:24;13.20;99.90
16408;DHT22;8313;49.894;8.084;2023-05-10T05:19:49;13.10;99.90
16408;DHT22;8313;49.894;8.084;2023-05-10T05:22:15;13.20;99.90
16408;DHT22;8313;49.894;8.084;2023-05-10T05:24:41;13.20;99.90
16408;DHT22;8313;49.894;8.084;2023-05-10T05:27:07;13.20;99.90
16408;DHT22;8313;49.894;8.084;2023-05-10T05:29:33;13.30;99.90
16408;DHT22;8313;49.894;8.084;2023-05-10T05:31:59;13.20;99.90
16408;DHT22;8313;49.894;8.084;2023-05-10T05:34:25;13.20;99.90
16408;DHT22;8313;49.894;8.084;2023-05-10T05:36:51;13.20;99.90
16408;DHT22;8313;49.894;8.084;2023-05-10T05:39:17;13.20;99.90
16408;DHT22;8313;49.894;8.084;2023-05-10T05:41:42;13.20;99.90
16408;DHT22;8313;49.894;8.084;2023-05-10T05:44:08;13.30;99.90
16408;DHT22;8313;49.894;8.084;2023-05-10T05:46:35;13.40;99.90
16408;DHT22;8313;49.894;8.084;2023-05-10T05:49:01;13.30;99.90
16408;DHT22;8313;49.894;8.084;2023-05-10T05:51:27;13.30;99.90
16408;DHT22;8313;49.894;8.084;2023-05-10T05:53:52;13.40;99.90
16408;DHT22;8313;49.894;8.084;2023-05-10T05:56:18;13.40;99.90
16408;DHT22;8313;49.894;8.084;2023-05-10T05:58:50;13.40;99.90
16408;DHT22;8313;49.894;8.084;2023-05-10T06:01:16;13.40;99.90
16408;DHT22;8313;49.894;8.084;2023-05-10T06:03:42;13.50;99.90
16408;DHT22;8313;49.894;8.084;2023-05-10T06:06:07;13.50;99.90
16408;DHT22;8313;49.894;8.084;2023-05-10T06:08:33;13.60;99.90
16408;DHT22;8313;49.894;8.084;2023-05-10T06:11:00;13.70;99.90
16408;DHT22;8313;49.894;8.084;2023-05-10T06:13:25;13.70;99.90
16408;DHT22;8313;49.894;8.084;2023-05-10T06:15:57;13.70;99.90
16408;DHT22;8313;49.894;8.084;2023-05-10T06:18:23;13.70;99.90
16408;DHT22;8313;49.894;8.084;2023-05-10T06:20:50;13.80;99.90
16408;DHT22;8313;49.894;8.084;2023-05-10T06:23:15;13.80;99.90
16408;DHT22;8313;49.894;8.084;2023-05-10T06:25:41;13.90;99.90
16408;DHT22;8313;49.894;8.084;2023-05-10T06:28:07;14.00;99.90
16408;DHT22;8313;49.894;8.084;2023-05-10T06:30:32;14.00;99.90
16408;DHT22;8313;49.894;8.084;2023-05-10T06:32:58;14.10;99.90
16408;DHT22;8313;49.894;8.084;2023-05-10T06:35:24;14.20;99.90
16408;DHT22;8313;49.894;8.084;2023-05-10T06:37:50;14.20;99.90
16408;DHT22;8313;49.894;8.084;2023-05-10T06:40:16;14.30;99.90
16408;DHT22;8313;49.894;8.084;2023-05-10T06:42:42;14.30;99.90
16408;DHT22;8313;49.894;8.084;2023-05-10T06:45:09;14.40;99.90
16408;DHT22;8313;49.894;8.084;2023-05-10T06:47:35;14.40;99.90
16408;DHT22;8313;49.894;8.084;2023-05-10T06:50:01;14.40;99.90
16408;DHT22;8313;49.894;8.084;2023-05-10T06:52:26;14.40;99.90
16408;DHT22;8313;49.894;8.084;2023-05-10T06:54:52;14.40;99.90
16408;DHT22;8313;49.894;8.084;2023-05-10T06:57:18;14.50;99.90
16408;DHT22;8313;49.894;8.084;2023-05-10T06:59:43;14.50;99.90
16408;DHT22;8313;49.894;8.084;2023-05-10T07:02:09;14.50;99.90
16408;DHT22;8313;49.894;8.084;2023-05-10T07:04:34;14.60;99.90
16408;DHT22;8313;49.894;8.084;2023-05-10T07:07:00;14.60;99.90
16408;DHT22;8313;49.894;8.084;2023-05-10T07:09:26;14.60;99.90
16408;DHT22;8313;49.894;8.084;2023-05-10T07:11:52;14.70;99.90
16408;DHT22;8313;49.894;8.084;2023-05-10T07:14:17;14.80;99.90
16408;DHT22;8313;49.894;8.084;2023-05-10T07:16:43;14.80;99.90
16408;DHT22;8313;49.894;8.084;2023-05-10T07:19:09;14.80;99.90
16408;DHT22;8313;49.894;8.084;2023-05-10T07:21:36;14.80;99.90
16408;DHT22;8313;49.894;8.084;2023-05-10T07:24:01;14.80;99.90
16408;DHT22;8313;49.894;8.084;2023-05-10T07:26:28;14.80;99.90
16408;DHT22;8313;49.894;8.084;2023-05-10T07:28:54;14.90;99.90
16408;DHT22;8313;49.894;8.084;2023-05-10T07:31:19;15.00;99.90
16408;DHT22;8313;49.894;8.084;2023-05-10T07:33:45;15.00;99.90
16408;DHT22;8313;49.894;8.084;2023-05-10T07:36:11;15.10;99.90
16408;DHT22;8313;49.894;8.084;2023-05-10T07:38:37;15.20;99.90
16408;DHT22;8313;49.894;8.084;2023-05-10T07:41:02;15.20;99.90
16408;DHT22;8313;49.894;8.084;2023-05-10T07:43:28;15.30;99.90
16408;DHT22;8313;49.894;8.084;2023-05-10T07:45:54;15.30;99.90
16408;DHT22;8313;49.894;8.084;2023-05-10T07:48:19;15.30;99.90
16408;DHT22;8313;49.894;8.084;2023-05-10T07:50:45;15.30;99.90
16408;DHT22;8313;49.894;8.084;2023-05-10T07:53:11;15.30;99.90
16408;DHT22;8313;49.894;8.084;2023-05-10T07:55:36;15.30;99.90
16408;DHT22;8313;49.894;8.084;2023-05-10T07:58:02;15.30;99.90
16408;DHT22;8313;49.894;8.084;2023-05-10T08:00:28;15.30;99.90
16408;DHT22;8313;49.894;8.084;2023-05-10T08:02:53;15.40;99.90
16408;DHT22;8313;49.894;8.084;2023-05-10T08:05:19;15.40;99.90
16408;DHT22;8313;49.894;8.084;2023-05-10T08:07:44;15.40;99.90
16408;DHT22;8313;49.894;8.084;2023-05-10T08:10:10;15.40;99.90
16408;DHT22;8313;49.894;8.084;2023-05-10T08:12:39;15.50;99.90
16408;DHT22;8313;49.894;8.084;2023-05-10T08:15:05;15.50;99.90
16408;DHT22;8313;49.894;8.084;2023-05-10T08:17:32;15.60;99.90
16408;DHT22;8313;49.894;8.084;2023-05-10T08:19:57;15.60;99.90
16408;DHT22;8313;49.894;8.084;2023-05-10T08:22:23;15.60;99.90
16408;DHT22;8313;49.894;8.084;2023-05-10T08:24:49;15.60;99.90
16408;DHT22;8313;49.894;8.084;2023-05-10T08:27:14;15.70;99.90
16408;DHT22;8313;49.894;8.084;2023-05-10T08:29:40;15.70;99.90
16408;DHT22;8313;49.894;8.084;2023-05-10T08:32:06;15.70;99.90
16408;DHT22;8313;49.894;8.084;2023-05-10T08:34:31;15.70;99.90
16408;DHT22;8313;49.894;8.084;2023-05-10T08:36:57;15.70;99.90
16408;DHT22;8313;49.894;8.084;2023-05-10T08:39:23;15.70;99.90
16408;DHT22;8313;49.894;8.084;2023-05-10T08:41:51;15.70;99.90
16408;DHT22;8313;49.894;8.084;2023-05-10T08:44:19;15.70;99.90
16408;DHT22;8313;49.894;8.084;2023-05-10T08:46:46;15.70;99.90
16408;DHT22;8313;49.894;8.084;2023-05-10T08:49:17;15.70;99.90
16408;DHT22;8313;49.894;8.084;2023-05-10T08:51:49;15.70;99.90
16408;DHT22;8313;49.894;8.084;2023-05-10T08:54:15;15.80;99.90
16408;DHT22;8313;49.894;8.084;2023-05-10T08:56:41;15.80;99.90
16408;DHT22;8313;49.894;8.084;2023-05-10T08:59:07;15.80;99.90
16408;DHT22;8313;49.894;8.084;2023-05-10T09:01:35;15.90;99.90
16408;DHT22;8313;49.894;8.084;2023-05-10T09:04:02;16.00;99.90
16408;DHT22;8313;49.894;8.084;2023-05-10T09:06:28;16.00;99.90
16408;DHT22;8313;49.894;8.084;2023-05-10T09:08:54;16.00;99.90
16408;DHT22;8313;49.894;8.084;2023-05-10T09:11:20;16.10;99.90
16408;DHT22;8313;49.894;8.084;2023-05-10T09:13:48;16.20;99.90
16408;DHT22;8313;49.894;8.084;2023-05-10T09:16:14;16.20;99.90
16408;DHT22;8313;49.894;8.084;2023-05-10T09:18:40;16.20;99.90
16408;DHT22;8313;49.894;8.084;2023-05-10T09:21:06;16.30;99.90
16408;DHT22;8313;49.894;8.084;2023-05-10T09:23:31;16.40;99.90
16408;DHT22;8313;49.894;8.084;2023-05-10T09:26:07;16.40;99.90
16408;DHT22;8313;49.894;8.084;2023-05-10T09:28:56;16.40;99.90
16408;DHT22;8313;49.894;8.084;2023-05-10T09:31:22;16.50;99.90
16408;DHT22;8313;49.894;8.084;2023-05-10T09:33:49;16.60;99.90
16408;DHT22;8313;49.894;8.084;2023-05-10T09:36:15;16.60;99.90
16408;DHT22;8313;49.894;8.084;2023-05-10T09:38:51;16.60;99.90
16408;DHT22;8313;49.894;8.084;2023-05-10T09:41:22;16.60;99.90
16408;DHT22;8313;49.894;8.084;2023-05-10T09:43:49;16.60;99.90
16408;DHT22;8313;49.894;8.084;2023-05-10T09:46:15;16.60;99.90
16408;DHT22;8313;49.894;8.084;2023-05-10T09:48:45;16.50;99.90
16408;DHT22;8313;49.894;8.084;2023-05-10T09:51:18;16.40;99.90
16408;DHT22;8313;49.894;8.084;2023-05-10T09:53:43;16.40;99.90
16408;DHT22;8313;49.894;8.084;2023-05-10T09:56:09;16.30;99.90
16408;DHT22;8313;49.894;8.084;2023-05-10T09:58:36;16.20;99.90
16408;DHT22;8313;49.894;8.084;2023-05-10T10:01:03;16.10;99.90
16408;DHT22;8313;49.894;8.084;2023-05-10T10:03:30;16.10;99.90
16408;DHT22;8313;49.894;8.084;2023-05-10T10:05:55;16.20;99.90
16408;DHT22;8313;49.894;8.084;2023-05-10T10:08:22;16.10;99.90
16408;DHT22;8313;49.894;8.084;2023-05-10T10:10:48;16.10;99.90
16408;DHT22;8313;49.894;8.084;2023-05-10T10:13:14;16.10;99.90
16408;DHT22;8313;49.894;8.084;2023-05-10T10:15:41;16.00;99.90
16408;DHT22;8313;49.894;8.084;2023-05-10T10:18:07;16.10;99.90
16408;DHT22;8313;49.894;8.084;2023-05-10T10:20:37;16.00;99.90
16408;DHT22;8313;49.894;8.084;2023-05-10T10:23:03;16.00;99.90
16408;DHT22;8313;49.894;8.084;2023-05-10T10:25:29;16.00;99.90
16408;DHT22;8313;49.894;8.084;2023-05-10T10:30:42;15.90;99.90
16408;DHT22;8313;49.894;8.084;2023-05-10T10:33:16;15.80;99.90
16408;DHT22;8313;49.894;8.084;2023-05-10T10:35:45;15.90;99.90
16408;DHT22;8313;49.894;8.084;2023-05-10T10:38:12;15.90;99.90
16408;DHT22;8313;49.894;8.084;2023-05-10T10:40:38;15.90;99.90
16408;DHT22;8313;49.894;8.084;2023-05-10T10:43:25;16.00;99.90
16408;DHT22;8313;49.894;8.084;2023-05-10T10:48:51;16.00;99.90
16408;DHT22;8313;49.894;8.084;2023-05-10T10:51:39;16.00;99.90
16408;DHT22;8313;49.894;8.084;2023-05-10T10:54:12;16.10;99.90
16408;DHT22;8313;49.894;8.084;2023-05-10T10:56:38;16.10;99.90
16408;DHT22;8313;49.894;8.084;2023-05-10T10:59:03;16.20;99.90
16408;DHT22;8313;49.894;8.084;2023-05-10T11:01:33;16.20;99.90
16408;DHT22;8313;49.894;8.084;2023-05-10T11:06:30;16.30;99.90
16408;DHT22;8313;49.894;8.084;2023-05-10T11:11:55;16.50;99.90
16408;DHT22;8313;49.894;8.084;2023-05-10T11:14:21;16.60;99.90
16408;DHT22;8313;49.894;8.084;2023-05-10T11:16:50;16.80;99.90
16408;DHT22;8313;49.894;8.084;2023-05-10T11:19:17;17.00;99.90
16408;DHT22;8313;49.894;8.084;2023-05-10T11:24:21;17.10;99.90
16408;DHT22;8313;49.894;8.084;2023-05-10T11:26:50;17.20;99.90
16408;DHT22;8313;49.894;8.084;2023-05-10T11:29:16;17.10;99.90
16408;DHT22;8313;49.894;8.084;2023-05-10T11:31:45;17.20;99.90
16408;DHT22;8313;49.894;8.084;2023-05-10T11:34:22;17.20;99.90
16408;DHT22;8313;49.894;8.084;2023-05-10T11:36:51;17.30;99.90
16408;DHT22;8313;49.894;8.084;2023-05-10T11:39:17;17.30;99.90
16408;DHT22;8313;49.894;8.084;2023-05-10T11:41:42;17.40;99.90
16408;DHT22;8313;49.894;8.084;2023-05-10T11:44:09;17.50;99.90
16408;DHT22;8313;49.894;8.084;2023-05-10T11:46:36;17.50;99.90
16408;DHT22;8313;49.894;8.084;2023-05-10T11:49:02;17.50;99.90
16408;DHT22;8313;49.894;8.084;2023-05-10T11:51:33;17.40;99.90
16408;DHT22;8313;49.894;8.084;2023-05-10T11:53:59;17.40;99.90
16408;DHT22;8313;49.894;8.084;2023-05-10T11:56:25;17.40;99.90
16408;DHT22;8313;49.894;8.084;2023-05-10T11:58:54;17.30;99.90
16408;DHT22;8313;49.894;8.084;2023-05-10T12:01:21;17.30;99.90
16408;DHT22;8313;49.894;8.084;2023-05-10T12:03:49;17.30;99.90
16408;DHT22;8313;49.894;8.084;2023-05-10T12:06:15;17.20;99.90
16408;DHT22;8313;49.894;8.084;2023-05-10T12:08:45;17.10;99.90
16408;DHT22;8313;49.894;8.084;2023-05-10T12:11:12;17.00;99.90
16408;DHT22;8313;49.894;8.084;2023-05-10T12:13:43;17.10;99.90
16408;DHT22;8313;49.894;8.084;2023-05-10T12:16:17;17.10;99.90
16408;DHT22;8313;49.894;8.084;2023-05-10T12:18:43;17.20;99.90
16408;DHT22;8313;49.894;8.084;2023-05-10T12:21:12;17.30;99.90
16408;DHT22;8313;49.894;8.084;2023-05-10T12:23:39;17.30;99.90
16408;DHT22;8313;49.894;8.084;2023-05-10T12:26:05;17.40;99.90
16408;DHT22;8313;49.894;8.084;2023-05-10T12:28:32;17.50;99.90
16408;DHT22;8313;49.894;8.084;2023-05-10T12:30:59;17.60;99.90
16408;DHT22;8313;49.894;8.084;2023-05-10T12:33:25;17.60;99.90
16408;DHT22;8313;49.894;8.084;2023-05-10T12:35:54;17.60;99.90
16408;DHT22;8313;49.894;8.084;2023-05-10T12:38:31;17.70;99.90
16408;DHT22;8313;49.894;8.084;2023-05-10T12:40:58;17.80;99.90
16408;DHT22;8313;49.894;8.084;2023-05-10T12:43:24;17.80;99.90
16408;DHT22;8313;49.894;8.084;2023-05-10T12:45:50;17.80;99.90
16408;DHT22;8313;49.894;8.084;2023-05-10T12:48:16;17.90;99.90
16408;DHT22;8313;49.894;8.084;2023-05-10T12:50:42;17.90;99.90
16408;DHT22;8313;49.894;8.084;2023-05-10T12:53:07;17.90;99.90
16408;DHT22;8313;49.894;8.084;2023-05-10T12:55:33;17.90;99.90
16408;DHT22;8313;49.894;8.084;2023-05-10T12:57:58;18.10;99.90
16408;DHT22;8313;49.894;8.084;2023-05-10T13:00:24;18.10;99.90
16408;DHT22;8313;49.894;8.084;2023-05-10T13:02:50;18.20;99.90
16408;DHT22;8313;49.894;8.084;2023-05-10T13:05:15;18.30;99.90
16408;DHT22;8313;49.894;8.084;2023-05-10T13:07:41;18.40;99.90
16408;DHT22;8313;49.894;8.084;2023-05-10T13:10:09;18.30;99.90
16408;DHT22;8313;49.894;8.084;2023-05-10T13:12:35;18.20;99.90
16408;DHT22;8313;49.894;8.084;2023-05-10T13:15:01;18.40;99.90
16408;DHT22;8313;49.894;8.084;2023-05-10T13:17:28;18.60;99.90
16408;DHT22;8313;49.894;8.084;2023-05-10T13:19:55;18.80;99.90
16408;DHT22;8313;49.894;8.084;2023-05-10T13:22:21;18.90;99.90
16408;DHT22;8313;49.894;8.084;2023-05-10T13:24:47;18.90;99.90
16408;DHT22;8313;49.894;8.084;2023-05-10T13:27:12;19.00;99.90
16408;DHT22;8313;49.894;8.084;2023-05-10T13:29:38;19.20;99.90
16408;DHT22;8313;49.894;8.084;2023-05-10T13:32:04;19.30;99.90
16408;DHT22;8313;49.894;8.084;2023-05-10T13:34:30;19.30;99.90
16408;DHT22;8313;49.894;8.084;2023-05-10T13:36:55;19.30;99.90
16408;DHT22;8313;49.894;8.084;2023-05-10T13:39:21;19.40;99.90
16408;DHT22;8313;49.894;8.084;2023-05-10T13:41:47;19.40;99.90
16408;DHT22;8313;49.894;8.084;2023-05-10T13:44:14;19.40;99.90
16408;DHT22;8313;49.894;8.084;2023-05-10T13:46:42;19.50;99.90
16408;DHT22;8313;49.894;8.084;2023-05-10T13:49:09;19.40;99.90
16408;DHT22;8313;49.894;8.084;2023-05-10T13:51:35;19.50;99.90
16408;DHT22;8313;49.894;8.084;2023-05-10T13:54:02;19.50;99.90
16408;DHT22;8313;49.894;8.084;2023-05-10T13:56:27;19.60;99.90
16408;DHT22;8313;49.894;8.084;2023-05-10T13:58:53;19.70;99.90
16408;DHT22;8313;49.894;8.084;2023-05-10T14:01:19;19.60;99.90
16408;DHT22;8313;49.894;8.084;2023-05-10T14:03:44;19.70;99.90
16408;DHT22;8313;49.894;8.084;2023-05-10T14:06:10;19.70;99.90
16408;DHT22;8313;49.894;8.084;2023-05-10T14:08:36;19.70;99.90
16408;DHT22;8313;49.894;8.084;2023-05-10T14:11:02;19.70;99.90
16408;DHT22;8313;49.894;8.084;2023-05-10T14:13:27;19.60;99.90
16408;DHT22;8313;49.894;8.084;2023-05-10T14:15:54;19.60;99.90
16408;DHT22;8313;49.894;8.084;2023-05-10T14:18:20;19.70;99.90
16408;DHT22;8313;49.894;8.084;2023-05-10T14:20:45;19.70;99.90
16408;DHT22;8313;49.894;8.084;2023-05-10T14:23:11;19.80;99.90
16408;DHT22;8313;49.894;8.084;2023-05-10T14:25:41;19.90;99.90
16408;DHT22;8313;49.894;8.084;2023-05-10T14:28:07;19.90;99.90
16408;DHT22;8313;49.894;8.084;2023-05-10T14:30:33;19.80;99.90
16408;DHT22;8313;49.894;8.084;2023-05-10T14:33:02;19.80;99.90
16408;DHT22;8313;49.894;8.084;2023-05-10T14:35:28;19.80;99.90
16408;DHT22;8313;49.894;8.084;2023-05-10T14:37:56;19.60;99.90
16408;DHT22;8313;49.894;8.084;2023-05-10T14:40:22;19.60;99.90
16408;DHT22;8313;49.894;8.084;2023-05-10T14:42:48;19.50;99.90
16408;DHT22;8313;49.894;8.084;2023-05-10T14:45:13;19.40;99.90
16408;DHT22;8313;49.894;8.084;2023-05-10T14:47:39;19.40;99.90
16408;DHT22;8313;49.894;8.084;2023-05-10T14:50:05;19.30;99.90
16408;DHT22;8313;49.894;8.084;2023-05-10T14:52:31;19.30;99.90
16408;DHT22;8313;49.894;8.084;2023-05-10T14:54:57;19.20;99.90
16408;DHT22;8313;49.894;8.084;2023-05-10T14:57:24;19.30;99.90
16408;DHT22;8313;49.894;8.084;2023-05-10T14:59:50;19.30;99.90
16408;DHT22;8313;49.894;8.084;2023-05-10T15:02:15;19.40;99.90
16408;DHT22;8313;49.894;8.084;2023-05-10T15:04:41;19.50;99.90
16408;DHT22;8313;49.894;8.084;2023-05-10T15:07:07;19.50;99.90
16408;DHT22;8313;49.894;8.084;2023-05-10T15:09:32;19.50;99.90
16408;DHT22;8313;49.894;8.084;2023-05-10T15:11:58;19.60;99.90
16408;DHT22;8313;49.894;8.084;2023-05-10T15:14:24;19.60;99.90
16408;DHT22;8313;49.894;8.084;2023-05-10T15:16:50;19.60;99.90
16408;DHT22;8313;49.894;8.084;2023-05-10T15:19:15;19.50;99.90
16408;DHT22;8313;49.894;8.084;2023-05-10T15:21:41;19.50;99.90
16408;DHT22;8313;49.894;8.084;2023-05-10T15:24:09;19.60;99.90
16408;DHT22;8313;49.894;8.084;2023-05-10T15:26:35;19.70;99.90
16408;DHT22;8313;49.894;8.084;2023-05-10T15:29:00;19.70;99.90
16408;DHT22;8313;49.894;8.084;2023-05-10T15:31:26;19.70;99.90
16408;DHT22;8313;49.894;8.084;2023-05-10T15:33:57;19.70;99.90
16408;DHT22;8313;49.894;8.084;2023-05-10T15:36:23;19.70;99.90
16408;DHT22;8313;49.894;8.084;2023-05-10T15:38:49;19.80;99.90
16408;DHT22;8313;49.894;8.084;2023-05-10T15:41:14;19.70;99.90
16408;DHT22;8313;49.894;8.084;2023-05-10T15:43:40;19.80;99.90
16408;DHT22;8313;49.894;8.084;2023-05-10T15:46:06;19.80;99.90
16408;DHT22;8313;49.894;8.084;2023-05-10T15:48:31;20.00;99.90
16408;DHT22;8313;49.894;8.084;2023-05-10T15:50:57;20.00;99.90
16408;DHT22;8313;49.894;8.084;2023-05-10T15:53:23;20.00;99.90
16408;DHT22;8313;49.894;8.084;2023-05-10T15:55:49;19.80;99.90
16408;DHT22;8313;49.894;8.084;2023-05-10T15:58:14;19.80;99.90
16408;DHT22;8313;49.894;8.084;2023-05-10T16:00:40;19.80;99.90
16408;DHT22;8313;49.894;8.084;2023-05-10T16:03:06;19.80;99.90
16408;DHT22;8313;49.894;8.084;2023-05-10T16:05:32;19.80;99.90
16408;DHT22;8313;49.894;8.084;2023-05-10T16:07:59;19.70;99.90
16408;DHT22;8313;49.894;8.084;2023-05-10T16:10:25;19.60;99.90
16408;DHT22;8313;49.894;8.084;2023-05-10T16:12:50;19.60;99.90
16408;DHT22;8313;49.894;8.084;2023-05-10T16:15:16;19.60;99.90
16408;DHT22;8313;49.894;8.084;2023-05-10T16:17:43;19.60;99.90